Time;durP1;ratioP1;P1;durP2;ratioP2;P2;SDS_P1;SDS_P2;PMS_P1;PMS_P2;Temp;Humidity;BMP_temperature;BMP_pressure;BME280_temperature;BME280_humidity;BME280_pressure;Samples;Min_cycle;Max_cycle;Signal;HPM_P1;HPM_P2
2024/04/09 00:01:03;;;;;;;0.50;0.40;;;16.70;99.90;;;;;;5459685;26;20496;-84
2024/04/09 00:03:31;;;;;;;0.50;0.40;;;16.60;99.90;;;;;;5459596;26;20515;-84
2024/04/09 00:06:14;;;;;;;0.50;0.40;;;16.70;99.90;;;;;;5458978;26;20561;-84
2024/04/09 00:08:40;;;;;;;0.50;0.40;;;16.60;99.90;;;;;;5461121;26;20471;-84
2024/04/09 00:11:10;;;;;;;0.50;0.40;;;16.60;99.90;;;;;;5460593;26;20455;-84
2024/04/09 00:13:39;;;;;;;0.50;0.30;;;16.40;99.90;;;;;;5464161;26;20508;-84
2024/04/09 00:16:12;;;;;;;0.50;0.40;;;16.30;99.90;;;;;;5432790;26;20459;-84
2024/04/09 00:18:38;;;;;;;0.50;0.40;;;16.20;99.90;;;;;;5472547;26;20459;-84
2024/04/09 00:21:07;;;;;;;0.50;0.40;;;16.20;99.90;;;;;;5474232;26;20488;-83
2024/04/09 00:23:35;;;;;;;0.50;0.30;;;16.30;99.90;;;;;;5474343;26;20544;-83
2024/04/09 00:26:03;;;;;;;0.50;0.40;;;16.30;99.90;;;;;;5476202;26;20456;-83
2024/04/09 00:28:29;;;;;;;0.50;0.40;;;16.50;99.90;;;;;;5471919;26;20495;-82
2024/04/09 00:31:04;;;;;;;0.50;0.40;;;16.60;99.90;;;;;;5464774;26;20448;-82
2024/04/09 00:33:30;;;;;;;0.50;0.30;;;16.80;99.90;;;;;;5464117;26;20574;-83
2024/04/09 00:35:58;;;;;;;0.50;0.30;;;17.30;99.90;;;;;;5462738;26;20507;-83
2024/04/09 00:38:24;;;;;;;11.10;1.23;;;17.60;99.90;;;;;;5465491;26;20286;-81
2024/04/09 00:40:54;;;;;;;0.50;0.40;;;17.90;99.90;;;;;;5465545;26;20499;-82
2024/04/09 00:43:20;;;;;;;0.50;0.40;;;18.10;99.90;;;;;;5462356;26;20496;-82
2024/04/09 00:45:52;;;;;;;2.50;1.77;;;18.30;99.90;;;;;;5458205;26;20448;-82
2024/04/09 00:48:21;;;;;;;0.50;0.30;;;18.30;99.90;;;;;;5456083;26;21014;-82
2024/04/09 00:50:50;;;;;;;0.50;0.30;;;18.20;99.90;;;;;;5457693;26;20549;-82
2024/04/09 00:53:18;;;;;;;0.50;0.50;;;18.10;99.90;;;;;;5458041;26;20550;-82
2024/04/09 00:55:47;;;;;;;0.50;0.30;;;18.00;99.90;;;;;;5457411;26;20975;-82
2024/04/09 00:58:15;;;;;;;0.50;0.40;;;17.90;99.90;;;;;;5458135;26;20873;-83
2024/04/09 01:00:44;;;;;;;0.50;0.30;;;17.80;99.90;;;;;;5458465;26;20496;-83
2024/04/09 01:03:10;;;;;;;0.50;0.40;;;17.70;99.90;;;;;;5458324;26;20502;-83
2024/04/09 01:05:41;;;;;;;0.50;0.30;;;17.70;99.90;;;;;;5457519;26;20452;-83
2024/04/09 01:08:07;;;;;;;0.50;0.40;;;17.60;99.90;;;;;;5461699;26;20608;-83
2024/04/09 01:10:36;;;;;;;0.50;0.40;;;17.50;99.90;;;;;;5461782;26;20523;-83
2024/04/09 01:13:02;;;;;;;5.23;2.00;;;17.40;99.90;;;;;;5460804;26;20457;-84
2024/04/09 01:15:30;;;;;;;0.50;0.40;;;17.30;99.90;;;;;;5461541;26;20543;-84
2024/04/09 01:17:56;;;;;;;0.50;0.40;;;17.20;99.90;;;;;;5460745;26;20499;-84
2024/04/09 01:20:25;;;;;;;0.50;0.40;;;17.20;99.90;;;;;;5459790;26;20445;-83
2024/04/09 01:22:54;;;;;;;0.50;0.30;;;17.10;99.90;;;;;;5460823;26;20445;-84
2024/04/09 01:25:23;;;;;;;0.50;0.30;;;17.00;99.90;;;;;;5460765;26;20508;-84
2024/04/09 01:27:49;;;;;;;0.50;0.40;;;16.80;99.90;;;;;;5460789;26;20515;-83
2024/04/09 01:30:18;;;;;;;0.50;0.40;;;16.80;99.90;;;;;;5460889;26;20971;-83
2024/04/09 01:32:44;;;;;;;1.87;1.77;;;16.70;99.90;;;;;;5460464;26;20275;-84
2024/04/09 01:35:14;;;;;;;0.50;0.30;;;16.60;99.90;;;;;;5459111;26;20566;-83
2024/04/09 01:37:41;;;;;;;0.50;0.40;;;16.50;99.90;;;;;;5459104;26;20277;-83
2024/04/09 01:40:13;;;;;;;0.50;0.40;;;16.40;99.90;;;;;;5461069;26;20452;-84
2024/04/09 01:42:39;;;;;;;0.50;0.40;;;16.30;99.90;;;;;;5460646;26;20456;-84
2024/04/09 01:45:08;;;;;;;0.50;0.40;;;16.30;99.90;;;;;;5461174;26;20534;-83
2024/04/09 01:47:33;;;;;;;0.50;0.40;;;16.30;99.90;;;;;;5461081;26;20535;-84
2024/04/09 01:50:03;;;;;;;0.50;0.40;;;16.20;99.90;;;;;;5460857;26;20527;-84
2024/04/09 01:52:31;;;;;;;0.50;0.40;;;16.10;99.90;;;;;;5460370;26;20315;-83
2024/04/09 01:55:00;;;;;;;0.50;0.40;;;16.10;99.90;;;;;;5459068;26;20491;-83
2024/04/09 01:57:31;;;;;;;0.50;0.40;;;16.10;99.90;;;;;;5461164;26;20535;-84
2024/04/09 02:00:05;;;;;;;0.50;0.40;;;16.00;99.90;;;;;;5460351;26;20456;-84
2024/04/09 02:02:31;;;;;;;0.50;0.40;;;16.00;99.90;;;;;;5460698;26;20479;-83
2024/04/09 02:05:00;;;;;;;0.50;0.40;;;16.00;99.90;;;;;;5453566;26;20839;-84
2024/04/09 02:07:26;;;;;;;0.50;0.40;;;16.00;99.90;;;;;;5454904;26;20553;-83
2024/04/09 02:09:55;;;;;;;0.50;0.37;;;16.00;99.90;;;;;;5460967;26;20471;-83
2024/04/09 02:12:21;;;;;;;0.50;0.30;;;16.00;99.90;;;;;;5460799;26;20503;-83
2024/04/09 02:14:53;;;;;;;1.50;1.40;;;15.90;99.90;;;;;;5432581;26;20469;-83
2024/04/09 02:17:19;;;;;;;0.50;0.40;;;15.80;99.90;;;;;;5428086;26;20317;-83
2024/04/09 02:19:51;;;;;;;0.50;0.40;;;15.80;99.90;;;;;;5426390;26;20868;-84
2024/04/09 02:22:17;;;;;;;0.50;0.40;;;15.70;99.90;;;;;;5455391;26;20464;-83
2024/04/09 02:24:45;;;;;;;0.50;0.30;;;15.60;99.90;;;;;;5460733;26;20455;-84
2024/04/09 02:27:11;;;;;;;0.50;0.40;;;15.60;99.90;;;;;;5460808;26;20210;-84
2024/04/09 02:29:40;;;;;;;0.50;0.40;;;15.50;99.90;;;;;;5458996;26;21323;-83
2024/04/09 02:32:10;;;;;;;0.50;0.40;;;15.50;99.90;;;;;;5460446;26;20503;-83
2024/04/09 02:34:41;;;;;;;0.50;0.40;;;15.50;99.90;;;;;;5459262;26;20447;-83
2024/04/09 02:37:07;;;;;;;0.50;0.40;;;15.50;99.90;;;;;;5460478;26;20460;-84
2024/04/09 02:39:36;;;;;;;0.50;0.40;;;15.40;99.90;;;;;;5460909;26;20974;-84
2024/04/09 02:42:03;;;;;;;0.50;0.33;;;15.40;99.90;;;;;;5460499;26;20515;-84
2024/04/09 02:44:32;;;;;;;0.50;0.40;;;15.40;99.90;;;;;;5460470;26;20467;-84
2024/04/09 02:47:00;;;;;;;0.50;0.37;;;15.40;99.90;;;;;;5460514;26;20474;-84
2024/04/09 02:49:31;;;;;;;0.50;0.47;;;15.40;99.90;;;;;;5465816;26;20524;-83
2024/04/09 02:51:57;;;;;;;4.47;2.60;;;15.40;99.90;;;;;;5468559;26;21052;-84
2024/04/09 02:54:25;;;;;;;0.50;0.40;;;15.40;99.90;;;;;;5474800;26;20544;-82
2024/04/09 02:56:51;;;;;;;0.50;0.40;;;15.30;99.90;;;;;;5467772;26;20569;-82
2024/04/09 02:59:20;;;;;;;0.50;0.40;;;15.30;99.90;;;;;;5456830;26;21032;-81
2024/04/09 03:01:46;;;;;;;0.50;0.50;;;15.30;99.90;;;;;;5456788;26;20650;-81
2024/04/09 03:04:15;;;;;;;11.03;3.03;;;15.20;99.90;;;;;;5457008;26;20463;-85
2024/04/09 03:06:43;;;;;;;0.50;0.40;;;15.20;99.90;;;;;;5454903;26;21000;-83
2024/04/09 03:09:12;;;;;;;2.10;1.57;;;15.20;99.90;;;;;;5455003;26;20611;-83
2024/04/09 03:11:41;;;;;;;0.53;0.53;;;15.10;99.90;;;;;;5456433;26;20495;-84
2024/04/09 03:14:10;;;;;;;0.87;0.73;;;15.10;99.90;;;;;;5456026;26;20472;-83
2024/04/09 03:16:40;;;;;;;0.50;0.40;;;15.10;99.90;;;;;;5454444;26;20451;-84
2024/04/09 03:19:05;;;;;;;0.50;0.37;;;15.00;99.90;;;;;;5453887;26;20906;-83
2024/04/09 03:21:34;;;;;;;0.50;0.30;;;14.90;99.90;;;;;;5454865;26;20459;-83
2024/04/09 03:24:02;;;;;;;0.50;0.40;;;14.90;99.90;;;;;;5455790;26;20978;-84
2024/04/09 03:26:32;;;;;;;2.90;1.90;;;14.90;99.90;;;;;;5455787;26;20511;-84
2024/04/09 03:28:58;;;;;;;0.50;0.40;;;14.90;99.90;;;;;;5456282;26;20572;-84
2024/04/09 03:31:28;;;;;;;0.50;0.33;;;15.00;99.90;;;;;;5453278;26;20458;-83
2024/04/09 03:33:55;;;;;;;0.50;0.40;;;15.00;99.90;;;;;;5435161;26;20962;-83
2024/04/09 03:36:23;;;;;;;0.87;0.83;;;15.10;99.90;;;;;;5448161;26;21072;-84
2024/04/09 03:38:52;;;;;;;0.60;0.60;;;15.10;99.90;;;;;;5448235;26;20460;-85
2024/04/09 03:41:21;;;;;;;0.90;0.63;;;15.10;99.90;;;;;;5444897;26;20452;-82
2024/04/09 03:43:49;;;;;;;0.70;0.70;;;15.10;99.90;;;;;;5455019;26;21081;-81
2024/04/09 03:46:16;;;;;;;0.50;0.40;;;15.10;99.90;;;;;;5454841;26;20459;-81
2024/04/09 03:48:45;;;;;;;1.13;0.70;;;15.10;99.90;;;;;;5454871;26;20462;-81
2024/04/09 03:51:13;;;;;;;0.50;0.40;;;15.10;99.90;;;;;;5455602;26;20573;-83
2024/04/09 03:53:43;;;;;;;4.33;2.30;;;15.10;99.90;;;;;;5454545;26;20465;-81
2024/04/09 03:56:09;;;;;;;0.67;0.67;;;15.10;99.90;;;;;;5455202;26;20515;-83
2024/04/09 03:58:43;;;;;;;0.60;0.40;;;15.10;99.90;;;;;;5454218;26;20459;-83
2024/04/09 04:01:10;;;;;;;3.13;2.23;;;15.10;99.90;;;;;;5442544;26;20217;-83
2024/04/09 04:03:41;;;;;;;1.47;1.37;;;15.20;99.90;;;;;;5454695;26;20606;-81
2024/04/09 04:06:07;;;;;;;0.83;0.60;;;15.20;99.90;;;;;;5440031;26;20510;-83
2024/04/09 04:08:38;;;;;;;1.63;0.77;;;15.20;99.90;;;;;;5422696;26;20560;-83
2024/04/09 04:11:07;;;;;;;0.50;0.40;;;15.20;99.90;;;;;;5426765;26;20253;-83
2024/04/09 04:13:38;;;;;;;0.60;0.60;;;15.30;99.90;;;;;;5419090;26;20478;-83
2024/04/09 04:16:09;;;;;;;0.60;0.50;;;15.30;99.90;;;;;;5418462;26;20528;-83
2024/04/09 04:18:40;;;;;;;0.50;0.33;;;15.30;99.90;;;;;;5422744;26;20507;-83
2024/04/09 04:21:09;;;;;;;0.50;0.40;;;15.30;99.90;;;;;;5454259;26;20452;-83
2024/04/09 04:23:38;;;;;;;0.57;0.57;;;15.20;99.90;;;;;;5452397;26;20476;-83
2024/04/09 04:26:06;;;;;;;0.60;0.50;;;15.20;99.90;;;;;;5440257;26;20441;-84
2024/04/09 04:28:38;;;;;;;0.50;0.40;;;15.10;99.90;;;;;;5438479;26;20532;-84
2024/04/09 04:31:11;;;;;;;0.50;0.40;;;15.10;99.90;;;;;;5439538;26;20538;-83
2024/04/09 04:33:41;;;;;;;0.80;0.70;;;15.00;99.90;;;;;;5416652;26;20597;-86
2024/04/09 04:36:08;;;;;;;0.50;0.40;;;14.90;99.90;;;;;;5447651;26;20446;-85
2024/04/09 04:38:37;;;;;;;0.50;0.30;;;14.80;99.90;;;;;;5442551;26;20471;-84
2024/04/09 04:41:04;;;;;;;0.50;0.30;;;14.70;99.90;;;;;;5456645;26;20504;-84
2024/04/09 04:43:33;;;;;;;0.50;0.40;;;14.60;99.90;;;;;;5455466;26;20459;-85
2024/04/09 04:46:00;;;;;;;0.50;0.40;;;14.60;99.90;;;;;;5444431;26;21043;-86
2024/04/09 04:48:31;;;;;;;7.40;2.50;;;14.50;99.90;;;;;;5455717;26;20519;-85
2024/04/09 04:50:58;;;;;;;0.50;0.40;;;14.50;99.90;;;;;;5441824;26;20442;-84
2024/04/09 04:53:28;;;;;;;0.50;0.40;;;14.40;99.90;;;;;;5443590;26;20568;-84
2024/04/09 04:55:54;;;;;;;1.23;1.13;;;14.30;99.90;;;;;;5456724;26;20459;-84
2024/04/09 04:58:24;;;;;;;0.50;0.40;;;14.30;99.90;;;;;;5465437;26;20586;-84
2024/04/09 05:01:07;;;;;;;0.50;0.40;;;14.30;99.90;;;;;;5463772;26;20523;-84
2024/04/09 05:03:36;;;;;;;0.50;0.40;;;14.20;99.90;;;;;;5462053;26;20500;-83
2024/04/09 05:06:08;;;;;;;0.50;0.40;;;14.20;99.90;;;;;;5458821;26;20445;-83
2024/04/09 05:08:36;;;;;;;1.50;1.40;;;14.20;99.90;;;;;;5461256;26;20524;-83
2024/04/09 05:11:10;;;;;;;0.80;0.80;;;14.20;99.90;;;;;;5458376;26;20451;-84
2024/04/09 05:13:36;;;;;;;1.20;1.20;;;14.10;99.90;;;;;;5461016;26;20449;-83
2024/04/09 05:16:08;;;;;;;0.50;0.40;;;14.10;99.90;;;;;;5462421;26;20442;-84
2024/04/09 05:18:36;;;;;;;1.17;1.17;;;14.10;99.90;;;;;;5461973;26;20483;-84
2024/04/09 05:21:05;;;;;;;0.50;0.40;;;14.10;99.90;;;;;;5462342;26;20525;-84
2024/04/09 05:23:31;;;;;;;0.50;0.40;;;14.10;99.90;;;;;;5461286;26;20793;-84
2024/04/09 05:26:00;;;;;;;0.50;0.40;;;14.20;99.90;;;;;;5462196;26;20528;-84
2024/04/09 05:28:26;;;;;;;0.50;0.40;;;14.20;99.90;;;;;;5461718;26;20739;-83
2024/04/09 05:30:54;;;;;;;1.40;1.33;;;14.20;99.90;;;;;;5459150;26;20471;-84
2024/04/09 05:33:20;;;;;;;0.50;0.40;;;14.20;99.90;;;;;;5461133;26;20451;-84
2024/04/09 05:35:53;;;;;;;0.73;0.70;;;14.20;99.90;;;;;;5458662;26;20453;-83
2024/04/09 05:38:23;;;;;;;1.80;1.43;;;14.10;99.90;;;;;;5460803;26;20479;-84
2024/04/09 05:41:00;;;;;;;2.57;1.80;;;14.10;99.90;;;;;;5461147;26;20611;-83
2024/04/09 05:43:25;;;;;;;0.50;0.40;;;14.00;99.90;;;;;;5461452;26;20451;-84
2024/04/09 05:45:54;;;;;;;0.60;0.60;;;14.00;99.90;;;;;;5460584;26;20454;-80
2024/04/09 05:48:20;;;;;;;0.50;0.40;;;14.00;99.90;;;;;;5460314;26;20467;-83
2024/04/09 05:50:51;;;;;;;0.87;0.87;;;14.00;99.90;;;;;;5458229;26;20446;-84
2024/04/09 05:53:17;;;;;;;0.50;0.50;;;13.90;99.90;;;;;;5460446;26;20451;-85
2024/04/09 05:55:56;;;;;;;0.50;0.40;;;13.90;99.90;;;;;;5460515;26;20531;-84
2024/04/09 05:58:22;;;;;;;0.50;0.40;;;14.00;99.90;;;;;;5459776;26;20264;-84
2024/04/09 06:00:53;;;;;;;1.03;1.03;;;13.90;99.90;;;;;;5459829;26;20458;-85
2024/04/09 06:03:18;;;;;;;0.50;0.30;;;13.90;99.90;;;;;;5457516;26;20452;-81
2024/04/09 06:05:47;;;;;;;0.60;0.50;;;13.90;99.90;;;;;;5457406;26;20448;-87
2024/04/09 06:08:15;;;;;;;0.50;0.40;;;14.00;99.90;;;;;;5463060;26;20546;-87
2024/04/09 06:10:44;;;;;;;0.50;0.40;;;13.90;99.90;;;;;;5461969;26;20569;-87
2024/04/09 06:13:12;;;;;;;1.00;0.80;;;13.90;99.90;;;;;;5459572;26;20511;-85
2024/04/09 06:15:39;;;;;;;0.50;0.40;;;13.90;99.90;;;;;;5458626;26;20508;-85
2024/04/09 06:18:08;;;;;;;0.50;0.40;;;13.90;99.90;;;;;;5457233;26;20472;-85
2024/04/09 06:20:34;;;;;;;0.50;0.40;;;13.90;99.90;;;;;;5456231;26;20594;-83
2024/04/09 06:23:03;;;;;;;1.57;1.50;;;13.90;99.90;;;;;;5455371;26;20454;-84
2024/04/09 06:25:33;;;;;;;0.50;0.40;;;13.90;99.90;;;;;;5455843;26;20800;-84
2024/04/09 06:28:01;;;;;;;0.50;0.40;;;13.80;99.90;;;;;;5454877;26;20469;-86
2024/04/09 06:30:27;;;;;;;0.50;0.40;;;13.80;99.90;;;;;;5454912;26;20442;-85
2024/04/09 06:32:55;;;;;;;0.80;0.80;;;13.80;99.90;;;;;;5452442;26;21203;-86
2024/04/09 06:35:22;;;;;;;1.10;1.10;;;13.60;99.90;;;;;;5427616;26;20300;-86
2024/04/09 06:37:51;;;;;;;0.50;0.40;;;13.40;99.90;;;;;;5454281;26;20526;-87
2024/04/09 06:40:17;;;;;;;0.50;0.50;;;13.30;99.90;;;;;;5439194;26;21018;-86
2024/04/09 06:42:51;;;;;;;0.70;0.50;;;13.20;99.90;;;;;;5425736;26;20528;-87
2024/04/09 06:45:18;;;;;;;3.70;3.40;;;12.90;99.90;;;;;;5442910;26;20511;-86
2024/04/09 06:47:46;;;;;;;0.83;0.83;;;12.80;99.90;;;;;;5441638;26;20805;-86
2024/04/09 06:50:15;;;;;;;0.50;0.40;;;12.50;99.90;;;;;;5454365;26;20498;-86
2024/04/09 06:52:44;;;;;;;0.50;0.40;;;12.50;99.90;;;;;;5445462;26;20516;-86
2024/04/09 06:55:10;;;;;;;0.50;0.40;;;12.30;99.90;;;;;;5432276;26;20590;-86
2024/04/09 06:57:38;;;;;;;0.50;0.40;;;12.30;99.90;;;;;;5439707;26;20536;-88
2024/04/09 07:00:08;;;;;;;0.50;0.40;;;12.30;99.90;;;;;;5445689;26;21518;-87
2024/04/09 07:02:37;;;;;;;0.50;0.40;;;12.20;99.90;;;;;;5437766;26;20442;-86
2024/04/09 07:05:03;;;;;;;0.50;0.43;;;12.10;99.90;;;;;;5458383;26;20536;-85
2024/04/09 07:07:32;;;;;;;0.50;0.40;;;12.00;99.90;;;;;;5457692;26;20572;-86
2024/04/09 07:10:00;;;;;;;0.50;0.40;;;11.90;99.90;;;;;;5458816;26;20474;-86
2024/04/09 07:12:29;;;;;;;0.50;0.40;;;12.00;99.90;;;;;;5456032;26;20516;-87
2024/04/09 07:14:55;;;;;;;0.50;0.40;;;11.90;99.90;;;;;;5434252;26;20598;-86
2024/04/09 07:17:28;;;;;;;0.50;0.40;;;11.90;99.90;;;;;;5455331;26;20473;-87
2024/04/09 07:19:57;;;;;;;0.90;0.70;;;11.80;99.90;;;;;;5432012;26;20243;-86
2024/04/09 07:22:26;;;;;;;0.50;0.40;;;11.80;99.90;;;;;;5434603;26;20463;-84
2024/04/09 07:24:53;;;;;;;0.50;0.40;;;11.80;99.90;;;;;;5456969;26;20461;-84
2024/04/09 07:27:22;;;;;;;0.50;0.40;;;11.70;99.90;;;;;;5442780;26;20475;-86
2024/04/09 07:29:48;;;;;;;0.73;0.73;;;11.70;99.90;;;;;;5458025;26;20809;-86
2024/04/09 07:32:16;;;;;;;0.90;0.50;;;11.70;99.90;;;;;;5457396;26;20526;-85
2024/04/09 07:34:46;;;;;;;0.50;0.50;;;11.60;99.90;;;;;;5449455;26;20471;-86
2024/04/09 07:37:15;;;;;;;0.50;0.50;;;11.60;99.90;;;;;;5451698;26;20453;-87
2024/04/09 07:39:44;;;;;;;0.80;0.73;;;11.60;99.90;;;;;;5450708;26;20594;-87
2024/04/09 07:42:13;;;;;;;1.85;1.38;;;11.60;99.90;;;;;;5444186;26;20224;-88
2024/04/09 07:44:39;;;;;;;1.37;1.27;;;11.50;99.90;;;;;;5447281;26;20225;-88
2024/04/09 07:47:10;;;;;;;0.80;0.80;;;11.50;99.90;;;;;;5463218;26;20453;-87
2024/04/09 07:49:36;;;;;;;0.50;0.40;;;11.50;99.90;;;;;;5461158;26;20469;-86
2024/04/09 07:52:10;;;;;;;0.50;0.40;;;11.40;99.90;;;;;;5460478;26;20212;-87
2024/04/09 07:54:36;;;;;;;0.60;0.50;;;11.40;99.90;;;;;;5463643;26;20254;-86
2024/04/09 07:57:05;;;;;;;0.60;0.60;;;11.40;99.90;;;;;;5461968;26;20453;-87
2024/04/09 07:59:31;;;;;;;0.50;0.50;;;11.50;99.90;;;;;;5458984;26;20281;-86
2024/04/09 08:01:59;;;;;;;0.50;0.40;;;11.50;99.90;;;;;;5459755;26;20530;-86
2024/04/09 08:04:25;;;;;;;0.68;0.68;;;11.50;99.90;;;;;;5459619;26;20306;-86
2024/04/09 08:06:54;;;;;;;1.00;0.63;;;11.60;99.90;;;;;;5458865;26;20212;-84
2024/04/09 08:09:23;;;;;;;0.50;0.40;;;11.60;99.90;;;;;;5458318;26;20240;-85
2024/04/09 08:11:53;;;;;;;0.50;0.40;;;11.70;99.90;;;;;;5458377;26;20456;-83
2024/04/09 08:14:22;;;;;;;16.33;1.03;;;11.90;99.90;;;;;;5457707;26;20449;-87
2024/04/09 08:16:53;;;;;;;1.57;0.97;;;11.90;99.90;;;;;;5456755;26;20518;-86
2024/04/09 08:19:19;;;;;;;0.63;0.50;;;12.10;99.90;;;;;;5457756;26;20517;-88
2024/04/09 08:21:48;;;;;;;0.50;0.40;;;12.30;99.90;;;;;;5457319;26;20799;-86
2024/04/09 08:24:13;;;;;;;0.50;0.40;;;12.70;99.90;;;;;;5457235;26;20769;-86
2024/04/09 08:26:44;;;;;;;0.50;0.40;;;13.20;99.90;;;;;;5457547;26;20458;-86
2024/04/09 08:29:16;;;;;;;0.50;0.40;;;13.30;99.90;;;;;;5457919;26;20293;-86
2024/04/09 08:31:45;;;;;;;2.20;2.00;;;13.60;99.90;;;;;;5457761;26;20450;-87
2024/04/09 08:34:11;;;;;;;0.60;0.60;;;13.90;99.90;;;;;;5457107;26;20982;-87
2024/04/09 08:36:40;;;;;;;0.50;0.37;;;14.40;99.90;;;;;;5457749;26;20503;-86
2024/04/09 08:39:07;;;;;;;0.50;0.40;;;14.30;99.90;;;;;;5455694;26;20475;-86
2024/04/09 08:41:36;;;;;;;0.50;0.40;;;13.90;99.90;;;;;;5459082;26;20568;-85
2024/04/09 08:44:07;;;;;;;3.73;0.60;;;13.60;99.90;;;;;;5459316;26;20434;-86
2024/04/09 08:46:39;;;;;;;0.80;0.40;;;13.60;99.90;;;;;;5464205;26;20952;-84
2024/04/09 08:49:08;;;;;;;0.50;0.40;;;13.40;99.90;;;;;;5465762;26;20584;-85
2024/04/09 08:51:38;;;;;;;0.50;0.40;;;13.40;99.90;;;;;;5467608;26;20487;-85
2024/04/09 08:54:04;;;;;;;3.57;1.07;;;13.50;99.90;;;;;;5466705;26;20517;-87
2024/04/09 08:56:32;;;;;;;0.50;0.40;;;13.50;99.90;;;;;;5461467;26;20845;-84
2024/04/09 08:59:04;;;;;;;0.50;0.40;;;13.30;99.90;;;;;;5458934;26;20989;-84
2024/04/09 09:01:35;;;;;;;0.50;0.40;;;13.20;99.90;;;;;;5459730;26;20450;-84
2024/04/09 09:04:01;;;;;;;0.70;0.70;;;13.20;99.90;;;;;;5459162;26;20521;-85
2024/04/09 09:06:30;;;;;;;0.50;0.40;;;13.20;99.90;;;;;;5457040;26;20515;-85
2024/04/09 09:08:57;;;;;;;0.50;0.50;;;13.20;99.90;;;;;;5457159;26;21005;-85
2024/04/09 09:11:26;;;;;;;0.50;0.40;;;13.10;99.90;;;;;;5467387;26;20446;-82
2024/04/09 09:13:52;;;;;;;2.50;2.30;;;12.90;99.90;;;;;;5475997;26;20511;-84
2024/04/09 09:16:21;;;;;;;0.60;0.50;;;12.80;99.90;;;;;;5476282;26;20441;-85
2024/04/09 09:18:50;;;;;;;0.50;0.50;;;12.70;99.90;;;;;;5475306;26;20444;-87
2024/04/09 09:21:18;;;;;;;0.80;0.80;;;12.80;99.90;;;;;;5468927;26;20447;-86
2024/04/09 09:23:46;;;;;;;0.50;0.40;;;13.00;99.90;;;;;;5465351;26;20449;-84
2024/04/09 09:26:26;;;;;;;0.50;0.40;;;13.30;99.90;;;;;;5461935;26;20576;-84
2024/04/09 09:29:01;;;;;;;0.50;0.40;;;13.40;99.90;;;;;;5462575;26;20476;-81
2024/04/09 09:31:34;;;;;;;0.60;0.60;;;13.40;99.90;;;;;;5460609;26;20451;-80
2024/04/09 09:34:07;;;;;;;2.93;1.27;;;13.40;99.90;;;;;;5458621;26;20537;-81
2024/04/09 09:36:38;;;;;;;9.07;4.57;;;13.30;99.90;;;;;;5454694;26;20439;-81
2024/04/09 09:39:04;;;;;;;1.20;0.60;;;13.10;99.90;;;;;;5456338;26;20462;-81
2024/04/09 09:41:34;;;;;;;0.50;0.40;;;13.10;99.90;;;;;;5457832;26;20497;-80
2024/04/09 09:44:00;;;;;;;0.50;0.40;;;12.80;99.90;;;;;;5453915;26;20215;-82
2024/04/09 09:46:30;;;;;;;1.10;0.83;;;12.70;99.90;;;;;;5457128;26;20501;-80
2024/04/09 09:48:57;;;;;;;0.50;0.40;;;12.70;99.90;;;;;;5455803;26;20603;-78
2024/04/09 09:51:34;;;;;;;7.30;0.70;;;12.60;99.90;;;;;;5456945;26;20509;-81
2024/04/09 09:54:00;;;;;;;0.50;0.40;;;12.30;99.90;;;;;;5455165;26;21048;-79
2024/04/09 09:56:31;;;;;;;0.80;0.50;;;12.20;99.90;;;;;;5454989;26;20562;-79
2024/04/09 09:59:02;;;;;;;5.87;5.47;;;12.30;99.90;;;;;;5456048;26;20291;-83
2024/04/09 10:01:31;;;;;;;0.50;0.50;;;12.40;99.90;;;;;;5454368;26;20450;-80
2024/04/09 10:04:03;;;;;;;0.50;0.40;;;12.50;99.90;;;;;;5453993;26;20992;-80
2024/04/09 10:06:36;;;;;;;0.50;0.40;;;12.80;99.90;;;;;;5454344;26;20975;-79
2024/04/09 10:09:06;;;;;;;0.60;0.53;;;13.30;99.90;;;;;;5456191;26;20534;-80
2024/04/09 10:11:44;;;;;;;0.50;0.40;;;14.10;99.90;;;;;;5458359;26;20450;-79
2024/04/09 10:14:11;;;;;;;0.60;0.50;;;15.00;99.90;;;;;;5458051;26;20799;-80
2024/04/09 10:16:40;;;;;;;0.50;0.40;;;16.20;99.90;;;;;;5457827;26;20449;-81
2024/04/09 10:19:09;;;;;;;0.50;0.40;;;17.10;99.90;;;;;;5457840;26;21113;-79
2024/04/09 10:21:43;;;;;;;2.87;1.80;;;17.90;99.90;;;;;;5457791;26;20459;-80
2024/04/09 10:24:10;;;;;;;0.87;0.50;;;18.20;99.90;;;;;;5457362;26;20555;-80
2024/04/09 10:26:44;;;;;;;0.50;0.40;;;18.50;99.90;;;;;;5457500;26;20560;-80
2024/04/09 10:29:17;;;;;;;1.73;1.43;;;18.60;99.90;;;;;;5457043;26;20589;-80
2024/04/09 10:31:48;;;;;;;0.50;0.40;;;18.50;99.90;;;;;;5457164;26;21047;-80
2024/04/09 10:34:23;;;;;;;0.80;0.77;;;18.10;99.80;;;;;;5456971;26;20465;-81
2024/04/09 10:36:57;;;;;;;0.50;0.40;;;17.80;99.90;;;;;;5458274;26;20497;-80
2024/04/09 10:39:25;;;;;;;0.60;0.53;;;17.50;99.90;;;;;;5456741;26;20566;-80
2024/04/09 10:42:07;;;;;;;0.60;0.50;;;16.90;99.90;;;;;;5456298;26;20460;-81
2024/04/09 10:44:34;;;;;;;0.50;0.37;;;17.30;99.90;;;;;;5457072;26;20458;-80
2024/04/09 10:47:05;;;;;;;2.80;2.60;;;18.10;99.90;;;;;;5454551;26;20560;-79
2024/04/09 10:49:31;;;;;;;0.50;0.40;;;18.20;99.90;;;;;;5456708;26;20501;-79
2024/04/09 10:52:05;;;;;;;0.60;0.40;;;18.40;99.90;;;;;;5456669;26;20524;-79
2024/04/09 10:54:32;;;;;;;1.13;0.90;;;17.10;99.90;;;;;;5456230;26;20480;-81
2024/04/09 10:57:03;;;;;;;0.60;0.57;;;15.80;99.90;;;;;;5457194;26;20428;-82
2024/04/09 10:59:28;;;;;;;2.70;2.53;;;15.10;99.90;;;;;;5456809;26;20993;-82
2024/04/09 11:01:57;;;;;;;1.70;0.70;;;14.70;99.90;;;;;;5456948;26;20502;-78
2024/04/09 11:04:24;;;;;;;0.50;0.40;;;14.50;99.90;;;;;;5456841;26;20256;-80
2024/04/09 11:06:53;;;;;;;0.50;0.40;;;14.50;99.90;;;;;;5456171;26;20462;-82
2024/04/09 11:09:22;;;;;;;0.50;0.40;;;14.40;99.90;;;;;;5454689;26;20937;-78
2024/04/09 11:11:52;;;;;;;1.70;0.40;;;14.20;99.90;;;;;;5456262;26;20563;-79
2024/04/09 11:14:18;;;;;;;0.60;0.60;;;14.00;99.90;;;;;;5456393;26;20482;-80
2024/04/09 11:16:49;;;;;;;0.50;0.30;;;14.00;99.90;;;;;;5455921;26;20514;-79
2024/04/09 11:19:19;;;;;;;0.50;0.40;;;14.20;99.90;;;;;;5455839;26;20538;-80
2024/04/09 11:21:50;;;;;;;0.50;0.40;;;14.30;99.90;;;;;;5456996;26;20455;-85
2024/04/09 11:24:17;;;;;;;0.50;0.40;;;14.60;99.90;;;;;;5458219;26;20451;-86
2024/04/09 11:26:48;;;;;;;0.60;0.40;;;14.70;99.90;;;;;;5457847;26;20851;-83
2024/04/09 11:29:23;;;;;;;0.50;0.40;;;14.60;99.90;;;;;;5456601;26;20523;-83
2024/04/09 11:31:52;;;;;;;0.50;0.40;;;14.60;99.90;;;;;;5455487;26;20965;-83
2024/04/09 11:34:26;;;;;;;1.43;1.33;;;14.30;99.90;;;;;;5455757;26;20449;-83
2024/04/09 11:36:56;;;;;;;0.50;0.40;;;14.00;99.90;;;;;;5456917;26;21009;-81
2024/04/09 11:39:23;;;;;;;0.50;0.40;;;14.00;99.90;;;;;;5456215;26;20527;-83
2024/04/09 11:41:56;;;;;;;1.43;0.73;;;14.00;99.90;;;;;;5457729;26;20450;-84
2024/04/09 11:44:23;;;;;;;1.53;0.40;;;14.00;99.90;;;;;;5456739;26;20471;-83
2024/04/09 11:46:52;;;;;;;0.53;0.40;;;13.90;99.90;;;;;;5456430;26;20456;-85
2024/04/09 11:49:19;;;;;;;1.27;1.17;;;14.30;99.90;;;;;;5456902;26;20601;-85
2024/04/09 11:51:49;;;;;;;0.50;0.30;;;14.80;99.90;;;;;;5457278;26;20452;-84
2024/04/09 11:54:14;;;;;;;0.50;0.50;;;16.10;99.90;;;;;;5456592;26;20555;-84
2024/04/09 11:56:43;;;;;;;0.70;0.60;;;16.50;99.90;;;;;;5457291;26;20463;-84
2024/04/09 11:59:11;;;;;;;0.50;0.40;;;16.30;99.90;;;;;;5454805;26;20576;-82
2024/04/09 12:01:43;;;;;;;0.50;0.50;;;15.90;99.90;;;;;;5458350;26;20441;-83
2024/04/09 12:04:09;;;;;;;0.50;0.40;;;15.70;99.90;;;;;;5457758;26;20991;-84
2024/04/09 12:06:39;;;;;;;0.50;0.40;;;16.10;99.90;;;;;;5457963;26;20504;-84
2024/04/09 12:09:07;;;;;;;0.50;0.40;;;16.70;99.90;;;;;;5457191;26;20258;-83
2024/04/09 12:11:38;;;;;;;0.50;0.37;;;16.60;99.90;;;;;;5458652;26;20524;-84
2024/04/09 12:14:04;;;;;;;0.50;0.50;;;16.00;99.90;;;;;;5460537;26;20869;-83
2024/04/09 12:16:42;;;;;;;0.50;0.30;;;15.60;99.90;;;;;;5457152;26;20504;-84
2024/04/09 12:19:09;;;;;;;0.70;0.60;;;15.80;99.90;;;;;;5456006;26;20533;-84
2024/04/09 12:21:39;;;;;;;3.80;1.90;;;16.60;96.70;;;;;;5456952;26;20461;-85
2024/04/09 12:24:05;;;;;;;0.77;0.77;;;17.20;95.10;;;;;;5456544;26;20457;-84
2024/04/09 12:26:35;;;;;;;0.60;0.50;;;17.40;94.10;;;;;;5456501;26;20497;-83
2024/04/09 12:29:01;;;;;;;0.70;0.50;;;18.30;93.60;;;;;;5455498;26;20513;-85
2024/04/09 12:31:30;;;;;;;0.50;0.40;;;17.90;92.20;;;;;;5465880;26;20901;-81
2024/04/09 12:33:58;;;;;;;0.50;0.50;;;17.40;92.40;;;;;;5472825;26;20445;-81
2024/04/09 12:36:27;;;;;;;0.50;0.40;;;15.90;95.10;;;;;;5472888;26;20528;-82
2024/04/09 12:38:54;;;;;;;0.50;0.40;;;15.80;95.80;;;;;;5458420;26;20465;-83
2024/04/09 12:41:23;;;;;;;0.60;0.60;;;15.50;96.60;;;;;;5461147;26;20451;-83
2024/04/09 12:43:49;;;;;;;0.50;0.30;;;14.90;98.70;;;;;;5461127;26;20527;-82
2024/04/09 12:46:19;;;;;;;0.50;0.40;;;14.70;99.30;;;;;;5456344;26;20501;-78
2024/04/09 12:48:46;;;;;;;4.17;0.83;;;14.50;99.90;;;;;;5453409;26;20535;-81
2024/04/09 12:51:17;;;;;;;0.50;0.50;;;14.40;99.90;;;;;;5454244;26;20537;-82
2024/04/09 12:53:43;;;;;;;0.50;0.40;;;14.40;99.90;;;;;;5453678;26;20508;-85